Time;durP1;ratioP1;P1;durP2;ratioP2;P2;SDS_P1;SDS_P2;PMS_P1;PMS_P2;Temp;Humidity;BMP_temperature;BMP_pressure;BME280_temperature;BME280_humidity;BME280_pressure;Samples;Min_cycle;Max_cycle;Signal;HPM_P1;HPM_P2
2020/12/28 00:01:10;;;;;;;10.02;6.78;;;9.80;75.30;;;;;;5009985;28;20030;-86
2020/12/28 00:03:36;;;;;;;8.90;5.68;;;9.80;75.20;;;;;;4985267;28;20511;-83
2020/12/28 00:06:01;;;;;;;9.75;6.28;;;9.80;75.20;;;;;;5000190;28;20030;-82
2020/12/28 00:08:28;;;;;;;8.82;5.57;;;9.80;75.10;;;;;;4977999;28;20471;-84
2020/12/28 00:10:53;;;;;;;8.63;5.75;;;9.80;75.20;;;;;;4973008;28;20084;-80
2020/12/28 00:13:19;;;;;;;8.95;6.07;;;9.90;75.10;;;;;;5010805;28;20388;-85
2020/12/28 00:15:44;;;;;;;8.55;5.97;;;9.90;75.10;;;;;;5009398;28;20434;-84
2020/12/28 00:18:10;;;;;;;11.05;6.40;;;9.80;75.10;;;;;;5006348;28;20425;-81
2020/12/28 00:20:36;;;;;;;8.93;5.82;;;9.80;75.30;;;;;;4964334;28;20493;-82
2020/12/28 00:23:02;;;;;;;10.20;6.50;;;9.80;75.30;;;;;;4995006;28;20033;-82
2020/12/28 00:25:28;;;;;;;11.15;6.45;;;9.80;75.40;;;;;;4995615;28;20030;-80
2020/12/28 00:27:54;;;;;;;8.88;6.15;;;9.80;75.40;;;;;;4983049;28;20447;-80
2020/12/28 00:30:20;;;;;;;9.57;6.97;;;9.80;75.30;;;;;;5008874;28;20034;-85
2020/12/28 00:32:46;;;;;;;10.32;6.75;;;9.80;75.20;;;;;;5010443;28;20582;-88
2020/12/28 00:35:12;;;;;;;11.05;8.35;;;9.90;75.30;;;;;;5009261;28;20030;-82
2020/12/28 00:37:38;;;;;;;10.55;7.53;;;9.90;75.10;;;;;;4995634;28;20540;-87
2020/12/28 00:40:06;;;;;;;12.10;8.77;;;9.90;75.10;;;;;;5010040;28;20144;-82
2020/12/28 00:42:32;;;;;;;10.48;7.53;;;9.90;75.10;;;;;;4972223;28;20440;-83
2020/12/28 00:44:58;;;;;;;11.70;7.20;;;9.90;75.10;;;;;;4984263;28;20484;-82
2020/12/28 00:47:24;;;;;;;10.10;7.22;;;9.90;75.10;;;;;;5002165;28;20058;-81
2020/12/28 00:49:49;;;;;;;11.15;7.60;;;9.90;74.90;;;;;;5008442;28;20092;-85
2020/12/28 00:52:15;;;;;;;12.55;7.78;;;9.90;74.70;;;;;;5007707;28;20041;-85
2020/12/28 00:54:41;;;;;;;13.32;9.50;;;10.00;74.70;;;;;;4989700;28;20033;-84
2020/12/28 00:57:06;;;;;;;10.63;7.47;;;9.90;74.70;;;;;;4988206;28;20092;-83
2020/12/28 00:59:32;;;;;;;11.13;7.90;;;9.90;74.70;;;;;;4991059;28;20121;-82
2020/12/28 01:01:59;;;;;;;13.98;9.43;;;9.90;74.80;;;;;;5006799;28;20042;-81
2020/12/28 01:04:25;;;;;;;14.05;8.40;;;9.90;74.90;;;;;;5008955;28;20026;-81
2020/12/28 01:06:51;;;;;;;11.75;7.30;;;9.80;74.90;;;;;;5008766;28;20045;-81
2020/12/28 01:09:17;;;;;;;13.82;8.00;;;9.90;74.90;;;;;;4990892;28;20319;-81
2020/12/28 01:11:44;;;;;;;13.15;8.57;;;9.90;74.50;;;;;;5008405;28;20060;-81
2020/12/28 01:14:10;;;;;;;12.85;7.88;;;9.80;74.50;;;;;;4990372;28;20037;-83
2020/12/28 01:16:36;;;;;;;11.80;7.60;;;9.80;74.50;;;;;;5004612;28;20061;-80
2020/12/28 01:19:03;;;;;;;12.30;8.30;;;9.90;74.70;;;;;;5006439;28;20468;-80
2020/12/28 01:21:29;;;;;;;13.38;8.77;;;9.90;74.60;;;;;;4990026;28;20125;-84
2020/12/28 01:23:54;;;;;;;11.70;7.88;;;9.90;74.60;;;;;;4990042;28;20125;-82
2020/12/28 01:26:20;;;;;;;11.35;7.85;;;9.90;74.50;;;;;;4992118;28;20030;-83
2020/12/28 01:28:46;;;;;;;11.15;8.00;;;9.90;74.30;;;;;;5002373;28;20034;-82
2020/12/28 01:31:12;;;;;;;12.65;8.27;;;9.90;74.30;;;;;;4992765;28;20033;-84
2020/12/28 01:33:37;;;;;;;12.15;8.63;;;9.90;74.20;;;;;;5010569;28;20050;-84
2020/12/28 01:36:04;;;;;;;11.23;7.63;;;9.90;74.20;;;;;;5008589;28;20390;-83
2020/12/28 01:38:30;;;;;;;12.35;8.40;;;9.90;74.20;;;;;;5001962;28;20464;-83
2020/12/28 01:40:59;;;;;;;10.40;7.13;;;9.80;74.10;;;;;;5010751;28;20121;-83
2020/12/28 01:43:26;;;;;;;9.85;6.68;;;9.80;74.30;;;;;;5013617;28;20046;-82
2020/12/28 01:45:52;;;;;;;9.90;7.22;;;9.80;74.30;;;;;;5014424;28;20030;-83
2020/12/28 01:48:18;;;;;;;9.07;5.75;;;9.80;74.30;;;;;;5000513;28;20041;-83
2020/12/28 01:50:44;;;;;;;12.25;7.95;;;9.80;74.30;;;;;;5012923;28;20038;-83
2020/12/28 01:53:09;;;;;;;10.10;6.80;;;9.80;74.30;;;;;;5004990;28;20099;-84
2020/12/28 01:55:35;;;;;;;11.05;6.93;;;9.80;74.30;;;;;;5002081;28;20197;-84
2020/12/28 01:58:01;;;;;;;10.43;6.97;;;9.80;74.40;;;;;;5005027;28;20453;-81
2020/12/28 02:00:26;;;;;;;10.75;6.50;;;9.70;74.20;;;;;;5012871;28;20033;-83
2020/12/28 02:02:52;;;;;;;11.18;7.05;;;9.70;74.40;;;;;;5013854;28;20046;-83
2020/12/28 02:05:18;;;;;;;9.18;6.50;;;9.70;74.40;;;;;;5012883;28;20038;-83
2020/12/28 02:07:45;;;;;;;10.43;6.68;;;9.80;74.40;;;;;;5013499;28;20373;-83
2020/12/28 02:10:11;;;;;;;9.32;6.68;;;9.80;74.30;;;;;;5013866;28;20040;-83
2020/12/28 02:12:38;;;;;;;9.95;6.40;;;9.80;74.30;;;;;;5014034;28;20038;-84
2020/12/28 02:15:05;;;;;;;10.32;7.05;;;9.80;74.10;;;;;;5010779;28;20124;-84
2020/12/28 02:17:31;;;;;;;9.40;6.35;;;9.80;73.90;;;;;;4994092;28;20124;-85
2020/12/28 02:19:56;;;;;;;9.02;6.15;;;9.80;73.80;;;;;;5013798;28;20127;-83
2020/12/28 02:22:22;;;;;;;8.98;5.68;;;9.80;73.70;;;;;;5012533;28;20100;-83
2020/12/28 02:24:47;;;;;;;10.05;5.65;;;9.70;73.70;;;;;;4992270;28;20105;-80
2020/12/28 02:27:13;;;;;;;8.25;5.30;;;9.70;73.90;;;;;;5011400;28;20132;-82
2020/12/28 02:29:38;;;;;;;14.38;6.13;;;9.70;74.10;;;;;;5013319;28;20503;-83
2020/12/28 02:32:04;;;;;;;7.10;4.68;;;9.70;74.10;;;;;;4996221;28;20058;-83
2020/12/28 02:34:30;;;;;;;10.23;5.55;;;9.70;74.00;;;;;;4999191;28;20030;-83
2020/12/28 02:36:55;;;;;;;9.18;5.75;;;9.70;73.90;;;;;;5004870;28;20471;-80
2020/12/28 02:39:21;;;;;;;8.50;5.75;;;9.80;73.90;;;;;;4995412;28;20527;-81
2020/12/28 02:41:46;;;;;;;8.52;5.38;;;9.80;73.90;;;;;;5013506;28;20128;-82
2020/12/28 02:44:12;;;;;;;14.15;5.85;;;9.80;73.70;;;;;;5013194;28;20543;-82
2020/12/28 02:46:38;;;;;;;8.93;5.38;;;9.80;73.80;;;;;;5010852;28;20049;-81
2020/12/28 02:49:03;;;;;;;8.43;5.78;;;9.70;73.90;;;;;;5010005;28;20139;-80
2020/12/28 02:51:29;;;;;;;9.18;5.28;;;9.70;73.80;;;;;;5002711;28;20057;-84
2020/12/28 02:53:54;;;;;;;9.05;5.18;;;9.70;73.90;;;;;;4995378;28;20516;-81
2020/12/28 02:56:20;;;;;;;9.68;5.65;;;9.70;74.10;;;;;;4995368;28;20095;-82
2020/12/28 02:58:45;;;;;;;10.55;6.00;;;9.70;74.10;;;;;;5012938;28;20061;-82
2020/12/28 03:01:11;;;;;;;9.63;6.35;;;9.70;74.00;;;;;;5012128;28;20042;-82
2020/12/28 03:03:37;;;;;;;8.20;5.18;;;9.70;74.00;;;;;;5012363;28;20052;-83
2020/12/28 03:06:02;;;;;;;10.27;5.45;;;9.70;74.00;;;;;;5011896;28;20124;-83
2020/12/28 03:08:28;;;;;;;8.15;5.38;;;9.70;73.60;;;;;;4995235;28;20536;-82
2020/12/28 03:10:53;;;;;;;9.27;5.18;;;9.60;73.80;;;;;;4974708;28;20341;-81
2020/12/28 03:13:19;;;;;;;9.40;5.10;;;9.60;73.70;;;;;;4974718;28;20046;-82
2020/12/28 03:15:45;;;;;;;10.13;5.72;;;9.60;73.60;;;;;;5005154;28;20387;-82
2020/12/28 03:18:10;;;;;;;9.43;5.85;;;9.60;73.50;;;;;;4990960;28;20044;-83
2020/12/28 03:20:36;;;;;;;10.52;6.10;;;9.60;73.20;;;;;;4996688;28;20502;-83
2020/12/28 03:23:01;;;;;;;11.02;6.65;;;9.60;73.20;;;;;;5010075;28;20053;-83
2020/12/28 03:25:27;;;;;;;13.43;6.47;;;9.60;73.10;;;;;;4994485;28;20057;-83
2020/12/28 03:27:53;;;;;;;9.30;5.90;;;9.70;73.20;;;;;;4988518;28;20027;-81
2020/12/28 03:30:19;;;;;;;7.88;5.38;;;9.70;73.10;;;;;;4982591;28;20053;-82
2020/12/28 03:32:44;;;;;;;9.82;6.57;;;9.70;72.60;;;;;;4969905;28;20102;-84
2020/12/28 03:35:10;;;;;;;10.13;5.88;;;9.70;72.90;;;;;;4976757;28;20105;-83
2020/12/28 03:37:36;;;;;;;14.65;6.93;;;9.70;72.90;;;;;;4993314;28;20032;-83
2020/12/28 03:40:03;;;;;;;10.00;6.25;;;9.70;72.80;;;;;;4983890;28;20105;-81
2020/12/28 03:42:28;;;;;;;13.98;6.13;;;9.70;72.80;;;;;;4990532;28;20030;-82
2020/12/28 03:44:54;;;;;;;10.45;6.05;;;9.70;72.60;;;;;;4990079;28;20437;-83
2020/12/28 03:47:19;;;;;;;11.43;6.00;;;9.70;72.60;;;;;;4989216;28;20031;-83
2020/12/28 03:49:46;;;;;;;13.20;6.65;;;9.70;72.70;;;;;;4988645;28;20062;-82
2020/12/28 03:52:13;;;;;;;11.05;6.47;;;9.70;72.40;;;;;;4990346;28;20038;-83
2020/12/28 03:54:38;;;;;;;12.07;6.38;;;9.60;72.40;;;;;;4988160;28;20054;-80
2020/12/28 03:57:04;;;;;;;11.70;6.75;;;9.60;72.50;;;;;;4991112;28;20069;-82
2020/12/28 03:59:29;;;;;;;10.93;6.50;;;9.60;71.90;;;;;;4991566;28;20042;-82
2020/12/28 04:01:55;;;;;;;12.07;5.88;;;9.50;72.20;;;;;;4992296;28;20793;-83
2020/12/28 04:04:21;;;;;;;10.25;5.90;;;9.50;72.20;;;;;;4991211;28;20045;-83
2020/12/28 04:06:47;;;;;;;9.80;6.07;;;9.50;72.20;;;;;;4988791;28;20173;-83
2020/12/28 04:09:12;;;;;;;12.05;5.95;;;9.60;72.30;;;;;;4990990;28;20203;-82
2020/12/28 04:11:38;;;;;;;13.10;6.93;;;9.60;72.20;;;;;;4992074;28;20092;-82
2020/12/28 04:14:04;;;;;;;12.40;6.93;;;9.60;72.10;;;;;;4992043;28;20392;-83
2020/12/28 04:16:29;;;;;;;10.30;6.20;;;9.60;72.20;;;;;;4970627;28;20057;-83
2020/12/28 04:18:55;;;;;;;10.48;5.95;;;9.60;71.90;;;;;;4989171;28;20031;-82
2020/12/28 04:21:20;;;;;;;11.95;7.18;;;9.60;71.80;;;;;;4988511;28;20050;-83
2020/12/28 04:23:46;;;;;;;10.18;5.95;;;9.60;71.60;;;;;;4983947;28;20038;-82
2020/12/28 04:26:12;;;;;;;11.18;5.78;;;9.50;71.60;;;;;;4990457;28;20053;-82
2020/12/28 04:28:37;;;;;;;15.45;6.78;;;9.50;71.70;;;;;;4990019;28;20049;-83
2020/12/28 04:31:07;;;;;;;11.05;6.78;;;9.60;71.80;;;;;;4991371;28;20038;-83
2020/12/28 04:33:32;;;;;;;11.25;6.35;;;9.50;71.60;;;;;;5008453;28;20197;-83
2020/12/28 04:35:59;;;;;;;12.73;5.55;;;9.50;71.50;;;;;;5000012;28;20030;-82
2020/12/28 04:38:25;;;;;;;10.07;6.38;;;9.60;71.60;;;;;;5009826;28;20022;-83
2020/12/28 04:40:51;;;;;;;10.20;6.60;;;9.60;71.70;;;;;;5010865;28;20421;-83
2020/12/28 04:43:16;;;;;;;11.95;7.07;;;9.50;71.60;;;;;;5010672;28;20072;-82
2020/12/28 04:45:42;;;;;;;10.30;5.20;;;9.50;71.80;;;;;;5010201;28;20061;-82
2020/12/28 04:48:09;;;;;;;11.68;6.50;;;9.50;72.00;;;;;;5010791;28;20042;-82
2020/12/28 04:50:40;;;;;;;11.07;6.68;;;9.50;72.00;;;;;;5007968;28;20038;-83
2020/12/28 04:53:06;;;;;;;10.43;6.07;;;9.50;72.00;;;;;;5012201;28;20038;-82
2020/12/28 04:55:32;;;;;;;10.85;6.13;;;9.40;71.90;;;;;;5008063;28;20034;-82
2020/12/28 04:57:58;;;;;;;8.75;5.90;;;9.40;72.00;;;;;;5009222;28;20053;-83
2020/12/28 05:00:24;;;;;;;9.25;5.35;;;9.40;72.00;;;;;;5010950;28;20038;-82
2020/12/28 05:02:50;;;;;;;10.65;5.75;;;9.30;72.10;;;;;;5022858;28;20029;-81
2020/12/28 05:05:16;;;;;;;9.27;5.75;;;9.30;72.20;;;;;;4991843;28;20034;-82
2020/12/28 05:07:49;;;;;;;9.52;5.70;;;9.30;72.30;;;;;;4994100;28;20092;-83
2020/12/28 05:10:27;;;;;;;10.20;4.90;;;9.30;72.30;;;;;;5010047;28;20026;-80
2020/12/28 05:12:54;;;;;;;9.57;5.45;;;9.40;72.20;;;;;;5008833;28;20167;-82
2020/12/28 05:15:20;;;;;;;11.57;6.45;;;9.30;72.10;;;;;;5002579;28;20542;-82
2020/12/28 05:17:53;;;;;;;9.95;6.25;;;9.30;72.00;;;;;;5009523;28;20040;-80
2020/12/28 05:20:24;;;;;;;11.18;6.00;;;9.20;72.10;;;;;;4990917;28;20057;-80
2020/12/28 05:22:54;;;;;;;9.70;5.05;;;9.20;72.10;;;;;;5009614;28;20111;-83
2020/12/28 05:25:22;;;;;;;10.52;5.28;;;9.20;72.30;;;;;;5009384;28;20057;-82
2020/12/28 05:27:49;;;;;;;10.30;5.63;;;9.20;72.30;;;;;;5009405;28;20395;-82
2020/12/28 05:30:16;;;;;;;10.52;5.20;;;9.20;72.20;;;;;;4992273;28;20117;-81
2020/12/28 05:32:43;;;;;;;10.10;6.05;;;9.20;72.10;;;;;;5005549;28;20057;-82
2020/12/28 05:35:13;;;;;;;8.93;5.30;;;9.20;72.10;;;;;;5005713;28;20034;-82
2020/12/28 05:37:39;;;;;;;13.15;4.40;;;9.20;72.10;;;;;;5004525;28;20113;-80
2020/12/28 05:40:09;;;;;;;8.52;5.20;;;9.10;72.10;;;;;;5009671;28;20037;-81
2020/12/28 05:42:35;;;;;;;11.88;5.15;;;9.10;72.10;;;;;;5009150;28;20061;-82
2020/12/28 05:45:08;;;;;;;9.98;5.13;;;9.10;72.20;;;;;;5009816;28;20092;-81
2020/12/28 05:47:41;;;;;;;10.70;5.10;;;9.10;72.30;;;;;;5009244;28;20478;-82
2020/12/28 05:50:06;;;;;;;10.67;5.47;;;9.10;72.20;;;;;;5000050;28;20044;-80
2020/12/28 05:52:36;;;;;;;9.18;4.88;;;9.10;72.20;;;;;;4990285;28;20492;-82
2020/12/28 05:55:02;;;;;;;8.82;4.82;;;9.00;72.20;;;;;;4987537;28;20088;-80
2020/12/28 05:57:29;;;;;;;10.95;5.30;;;9.00;72.40;;;;;;4989829;28;20038;-82
2020/12/28 05:59:56;;;;;;;11.35;5.40;;;8.90;72.60;;;;;;4971749;28;20039;-82
2020/12/28 06:02:26;;;;;;;10.23;4.95;;;8.90;72.80;;;;;;4993032;28;20417;-82
2020/12/28 06:04:53;;;;;;;11.55;6.30;;;8.80;72.80;;;;;;4990593;28;20048;-82
2020/12/28 06:07:21;;;;;;;10.43;5.22;;;8.80;72.90;;;;;;4994495;28;20476;-82
2020/12/28 06:09:54;;;;;;;11.48;5.60;;;8.80;72.90;;;;;;4991517;28;20026;-82
2020/12/28 06:12:19;;;;;;;10.60;6.07;;;8.80;73.00;;;;;;4967084;28;20062;-83
2020/12/28 06:14:45;;;;;;;10.80;6.20;;;8.70;73.00;;;;;;4982148;28;20092;-82
2020/12/28 06:17:12;;;;;;;10.07;5.72;;;8.70;73.20;;;;;;5002608;28;20034;-82
2020/12/28 06:19:39;;;;;;;11.50;5.95;;;8.60;73.50;;;;;;4972586;28;20053;-83
2020/12/28 06:22:39;;;;;;;12.80;6.53;;;8.60;73.60;;;;;;5001289;28;20482;-84
2020/12/28 06:25:12;;;;;;;14.40;7.95;;;8.50;73.80;;;;;;4965782;28;20050;-83
2020/12/28 06:27:42;;;;;;;12.25;7.82;;;8.50;74.00;;;;;;4991328;28;20022;-83
2020/12/28 06:30:09;;;;;;;11.05;6.95;;;8.40;74.10;;;;;;5007512;28;20026;-83
2020/12/28 06:32:35;;;;;;;12.13;7.78;;;8.40;74.40;;;;;;4996964;28;20152;-83
2020/12/28 06:35:03;;;;;;;12.95;8.10;;;8.30;74.50;;;;;;4982632;28;20117;-81
2020/12/28 06:37:28;;;;;;;12.00;7.70;;;8.30;74.60;;;;;;5012603;28;20044;-83
2020/12/28 06:39:58;;;;;;;12.80;8.85;;;8.30;74.80;;;;;;4994777;28;20400;-81
2020/12/28 06:42:23;;;;;;;13.90;8.45;;;8.30;74.80;;;;;;4999043;28;20057;-83
2020/12/28 06:44:49;;;;;;;16.45;9.38;;;8.30;75.00;;;;;;4978920;28;20061;-82
2020/12/28 06:47:17;;;;;;;13.63;8.82;;;8.20;75.00;;;;;;5011693;28;20109;-80
2020/12/28 06:49:43;;;;;;;14.48;8.73;;;8.20;75.30;;;;;;5011513;28;20033;-82
2020/12/28 06:52:09;;;;;;;14.35;8.95;;;8.10;75.50;;;;;;5002266;28;20107;-82
2020/12/28 06:54:34;;;;;;;16.13;9.25;;;8.10;75.60;;;;;;4987522;28;20476;-81
2020/12/28 06:57:04;;;;;;;17.33;9.98;;;8.10;75.60;;;;;;5011355;28;20080;-82
2020/12/28 06:59:30;;;;;;;14.65;9.07;;;8.10;75.50;;;;;;4999731;28;20033;-81
2020/12/28 07:02:01;;;;;;;16.17;8.83;;;8.10;75.50;;;;;;5009424;28;20036;-81
2020/12/28 07:04:27;;;;;;;15.83;7.87;;;8.20;75.50;;;;;;5003472;28;20049;-81
2020/12/28 07:07:04;;;;;;;15.75;7.78;;;8.20;75.30;;;;;;4976130;28;20076;-81
2020/12/28 07:09:30;;;;;;;13.73;8.18;;;8.30;75.10;;;;;;4993188;28;20113;-81
2020/12/28 07:11:55;;;;;;;14.52;8.52;;;8.30;74.90;;;;;;4997089;28;20120;-81
2020/12/28 07:14:21;;;;;;;15.07;8.88;;;8.40;74.70;;;;;;4971767;28;20155;-83
2020/12/28 07:16:54;;;;;;;15.90;8.07;;;8.30;74.50;;;;;;4998652;28;20034;-82
2020/12/28 07:19:20;;;;;;;16.40;8.70;;;8.40;74.30;;;;;;4994850;28;20064;-82
2020/12/28 07:21:46;;;;;;;14.50;8.63;;;8.40;74.30;;;;;;4996852;28;20057;-82
2020/12/28 07:24:12;;;;;;;14.25;7.68;;;8.50;74.20;;;;;;5010998;28;20084;-81
2020/12/28 07:26:40;;;;;;;13.23;7.80;;;8.50;74.10;;;;;;5011027;28;20149;-82
2020/12/28 07:29:14;;;;;;;14.07;9.05;;;8.50;74.10;;;;;;4996382;28;20030;-78
2020/12/28 07:31:41;;;;;;;12.93;7.13;;;8.60;74.20;;;;;;5010302;28;20425;-82
2020/12/28 07:34:06;;;;;;;11.48;7.20;;;8.60;74.00;;;;;;5010560;28;20068;-82
2020/12/28 07:36:36;;;;;;;13.98;8.30;;;8.70;74.00;;;;;;4992435;28;20049;-82
2020/12/28 07:39:02;;;;;;;15.07;9.20;;;8.70;73.90;;;;;;5011582;28;20481;-79
2020/12/28 07:41:28;;;;;;;12.52;7.53;;;8.70;73.80;;;;;;5011326;28;20472;-80
2020/12/28 07:43:56;;;;;;;14.48;8.40;;;8.70;73.90;;;;;;5010826;28;20044;-81
2020/12/28 07:46:31;;;;;;;14.30;7.80;;;8.60;73.80;;;;;;5009582;28;20053;-83
2020/12/28 07:49:18;;;;;;;15.70;8.55;;;8.60;73.70;;;;;;5012224;28;20174;-81
2020/12/28 07:51:49;;;;;;;12.55;8.00;;;8.60;73.90;;;;;;5003692;28;20034;-81
2020/12/28 07:54:31;;;;;;;16.25;7.35;;;8.60;73.80;;;;;;5007209;28;20068;-79
2020/12/28 07:57:00;;;;;;;17.15;8.95;;;8.60;73.70;;;;;;4992164;28;20041;-80
2020/12/28 07:59:51;;;;;;;12.95;7.13;;;8.60;73.60;;;;;;5010948;28;20052;-80
2020/12/28 08:02:22;;;;;;;13.82;6.97;;;8.60;73.50;;;;;;5010751;28;20372;-80
2020/12/28 08:04:48;;;;;;;11.70;6.28;;;8.50;73.30;;;;;;5009655;28;20135;-80
2020/12/28 08:07:19;;;;;;;14.35;5.88;;;8.40;73.60;;;;;;4998568;28;20125;-89
2020/12/28 08:09:54;;;;;;;12.50;5.32;;;8.30;73.80;;;;;;5002963;28;20033;-87
2020/12/28 08:12:20;;;;;;;10.95;5.88;;;8.30;74.10;;;;;;5004272;28;20056;-88
2020/12/28 08:14:53;;;;;;;13.95;5.85;;;8.20;74.30;;;;;;4982739;28;20034;-83
2020/12/28 08:17:26;;;;;;;10.90;6.10;;;8.20;74.00;;;;;;4999550;28;20034;-83
2020/12/28 08:19:52;;;;;;;10.52;5.90;;;8.10;74.20;;;;;;4986494;28;20133;-84
2020/12/28 08:22:22;;;;;;;12.88;6.22;;;8.10;74.40;;;;;;5002327;28;20341;-81
2020/12/28 08:24:59;;;;;;;9.68;5.45;;;8.10;74.50;;;;;;4995937;28;20045;-84
2020/12/28 08:27:28;;;;;;;9.52;5.18;;;8.10;74.50;;;;;;4996483;28;20164;-81
2020/12/28 08:29:53;;;;;;;10.40;5.25;;;8.10;74.70;;;;;;4998968;28;20026;-82
2020/12/28 08:32:19;;;;;;;10.85;6.32;;;8.10;74.70;;;;;;4999332;28;20452;-85
2020/12/28 08:34:53;;;;;;;9.05;5.18;;;8.10;74.70;;;;;;4980373;28;20130;-85
2020/12/28 08:37:20;;;;;;;13.32;6.38;;;8.10;74.60;;;;;;4965741;28;20747;-84
2020/12/28 08:39:45;;;;;;;11.27;5.72;;;8.10;74.60;;;;;;4978430;28;20026;-81
2020/12/28 08:42:11;;;;;;;10.00;4.85;;;8.20;74.60;;;;;;4993796;28;20033;-79
2020/12/28 08:44:40;;;;;;;9.57;5.70;;;8.20;74.40;;;;;;4983812;28;20046;-84
2020/12/28 08:47:13;;;;;;;10.25;5.68;;;8.30;74.40;;;;;;4998457;28;20030;-89
2020/12/28 08:49:42;;;;;;;11.60;5.90;;;8.30;74.30;;;;;;4995265;28;20022;-84
2020/12/28 08:52:09;;;;;;;11.23;5.45;;;8.40;74.30;;;;;;5003806;28;20141;-88
2020/12/28 08:54:34;;;;;;;8.63;5.35;;;8.40;74.00;;;;;;4981606;28;20040;-80
2020/12/28 08:57:00;;;;;;;9.88;5.47;;;8.40;74.10;;;;;;5001342;28;20038;-82
2020/12/28 08:59:26;;;;;;;11.13;6.30;;;8.30;74.00;;;;;;4998777;28;20046;-79
2020/12/28 09:01:52;;;;;;;9.55;5.53;;;8.40;74.60;;;;;;4994495;28;20045;-89
2020/12/28 09:04:19;;;;;;;11.13;5.95;;;8.50;74.50;;;;;;4985965;28;20182;-89
2020/12/28 09:06:45;;;;;;;9.88;5.60;;;8.70;74.10;;;;;;4996215;28;20056;-75
2020/12/28 09:09:11;;;;;;;8.45;5.00;;;8.80;73.60;;;;;;4996688;28;20026;-75
2020/12/28 09:11:36;;;;;;;8.27;5.00;;;8.90;73.40;;;;;;5000114;28;20026;-75
2020/12/28 09:14:02;;;;;;;8.25;5.30;;;9.00;73.10;;;;;;4994346;28;20061;-76
2020/12/28 09:16:28;;;;;;;13.73;7.20;;;9.10;72.70;;;;;;4999572;28;20427;-76
2020/12/28 09:18:54;;;;;;;10.82;6.20;;;9.10;71.40;;;;;;4973801;28;20562;-75
2020/12/28 09:21:21;;;;;;;9.98;5.95;;;9.00;71.40;;;;;;4998454;28;20038;-88
2020/12/28 09:23:47;;;;;;;9.25;5.93;;;9.00;71.80;;;;;;4984593;28;20052;-87
2020/12/28 09:26:12;;;;;;;10.00;6.10;;;9.00;72.00;;;;;;4979988;28;20065;-87
2020/12/28 09:28:38;;;;;;;8.77;5.38;;;9.00;72.30;;;;;;4996932;28;20063;-88
2020/12/28 09:31:03;;;;;;;10.05;5.80;;;9.10;72.30;;;;;;4976222;28;20037;-85
2020/12/28 09:33:29;;;;;;;11.45;8.10;;;9.20;72.10;;;;;;5003360;28;20304;-80
2020/12/28 09:35:55;;;;;;;9.15;5.50;;;9.40;72.00;;;;;;4986937;28;20131;-86
2020/12/28 09:38:20;;;;;;;9.82;5.93;;;9.50;71.80;;;;;;4971169;28;20124;-82
2020/12/28 09:40:46;;;;;;;9.73;5.57;;;9.60;71.40;;;;;;4969728;28;20858;-84
2020/12/28 09:43:11;;;;;;;9.73;5.95;;;9.70;70.70;;;;;;4987459;28;20176;-76
2020/12/28 09:45:37;;;;;;;12.30;6.03;;;9.80;70.30;;;;;;4983960;28;20083;-75
2020/12/28 09:48:06;;;;;;;9.10;5.72;;;9.70;69.70;;;;;;4987322;28;20038;-77
2020/12/28 09:50:32;;;;;;;8.55;4.95;;;9.70;69.90;;;;;;5001226;28;20176;-76
2020/12/28 09:52:58;;;;;;;7.40;4.25;;;9.70;70.10;;;;;;4984072;28;20053;-88
2020/12/28 09:55:24;;;;;;;10.90;4.45;;;9.60;69.40;;;;;;5002810;28;20092;-78
2020/12/28 09:57:49;;;;;;;9.20;4.25;;;9.50;69.70;;;;;;4982156;28;20120;-79
2020/12/28 10:00:15;;;;;;;9.07;3.20;;;9.50;70.30;;;;;;5004218;28;20066;-78
2020/12/28 10:02:42;;;;;;;7.38;3.92;;;9.50;70.00;;;;;;5011580;28;20030;-86
2020/12/28 10:05:09;;;;;;;6.88;3.53;;;9.60;69.70;;;;;;4990425;28;20037;-75
2020/12/28 10:07:37;;;;;;;7.97;4.10;;;9.60;69.80;;;;;;5000919;28;20100;-74
2020/12/28 10:10:04;;;;;;;8.38;3.60;;;9.60;69.60;;;;;;5004175;28;20054;-79
2020/12/28 10:12:29;;;;;;;9.40;3.97;;;9.50;69.60;;;;;;5004058;28;20544;-77
2020/12/28 10:14:55;;;;;;;6.85;3.92;;;9.50;69.60;;;;;;4987899;28;20129;-82
2020/12/28 10:17:21;;;;;;;6.85;4.07;;;9.30;69.80;;;;;;4999970;28;20039;-82
2020/12/28 10:19:47;;;;;;;8.35;4.25;;;9.30;70.20;;;;;;5000097;28;20038;-81
2020/12/28 10:22:13;;;;;;;9.75;5.22;;;9.20;70.70;;;;;;4992911;28;20629;-76
2020/12/28 10:24:39;;;;;;;8.90;4.50;;;9.20;70.60;;;;;;4993852;28;20069;-77
2020/12/28 10:27:05;;;;;;;9.13;5.20;;;9.20;70.70;;;;;;4986774;28;20080;-85
2020/12/28 10:29:31;;;;;;;8.30;5.07;;;9.20;70.60;;;;;;5003640;28;20403;-84
2020/12/28 10:31:57;;;;;;;8.60;5.28;;;9.20;70.70;;;;;;4967271;28;20112;-90
2020/12/28 10:34:23;;;;;;;10.23;6.45;;;9.30;70.50;;;;;;4982882;28;20034;-84
2020/12/28 10:36:49;;;;;;;9.25;4.70;;;9.20;70.40;;;;;;4979670;28;20408;-89
2020/12/28 10:39:15;;;;;;;8.60;4.30;;;9.10;70.20;;;;;;4999806;28;20046;-90
2020/12/28 10:41:40;;;;;;;8.00;5.10;;;9.00;70.80;;;;;;4972071;28;20033;-91
2020/12/28 10:44:06;;;;;;;8.57;4.38;;;9.10;70.50;;;;;;4981878;28;20129;-90
2020/12/28 10:46:34;;;;;;;9.00;4.13;;;9.10;70.50;;;;;;4972577;28;20030;-88
2020/12/28 10:48:59;;;;;;;9.00;4.32;;;9.00;70.40;;;;;;4984614;28;20096;-77
2020/12/28 10:51:25;;;;;;;6.35;3.85;;;9.00;70.20;;;;;;4982054;28;20049;-76
2020/12/28 10:53:51;;;;;;;7.10;3.45;;;9.00;70.50;;;;;;4986858;28;20042;-77
2020/12/28 10:56:27;;;;;;;6.90;3.80;;;9.00;70.60;;;;;;4958623;28;20444;-75
2020/12/28 10:58:53;;;;;;;7.00;3.33;;;9.10;70.40;;;;;;4993326;28;20026;-75
2020/12/28 11:01:25;;;;;;;7.75;3.90;;;9.10;70.50;;;;;;4990590;28;20061;-75
2020/12/28 11:03:51;;;;;;;7.38;3.60;;;9.10;70.20;;;;;;5008508;28;20026;-75
2020/12/28 11:06:22;;;;;;;6.75;3.60;;;9.20;70.10;;;;;;5009033;28;20045;-74
2020/12/28 11:08:48;;;;;;;6.80;3.40;;;9.20;70.00;;;;;;5006215;28;20025;-75
2020/12/28 11:11:17;;;;;;;6.55;3.67;;;9.20;70.00;;;;;;5010265;28;20041;-75
2020/12/28 11:13:46;;;;;;;7.47;3.50;;;9.30;69.50;;;;;;4987633;28;20041;-74
2020/12/28 11:16:12;;;;;;;5.80;3.50;;;9.30;69.40;;;;;;5012407;28;20033;-75
2020/12/28 11:18:39;;;;;;;7.07;3.40;;;9.30;69.40;;;;;;5001274;28;20041;-83
2020/12/28 11:21:05;;;;;;;6.25;3.38;;;9.30;69.20;;;;;;5001930;28;20045;-85
2020/12/28 11:23:59;;;;;;;7.50;3.70;;;9.30;69.00;;;;;;5001693;28;20026;-88
2020/12/28 11:26:19;;;;;;;6.78;3.33;;;9.40;68.70;;;;;;5000731;28;20104;-88
2020/12/28 11:28:46;;;;;;;9.82;3.35;;;9.30;68.60;;;;;;4979818;28;20042;-79
2020/12/28 11:31:16;;;;;;;6.53;3.58;;;9.30;68.70;;;;;;4980516;28;20540;-87
2020/12/28 11:33:42;;;;;;;6.53;3.33;;;9.30;68.80;;;;;;4977451;28;20429;-82
2020/12/28 11:36:08;;;;;;;6.30;2.92;;;9.40;69.00;;;;;;4990901;28;20086;-85
2020/12/28 11:38:34;;;;;;;8.07;3.60;;;9.50;69.00;;;;;;4983144;28;20042;-75
2020/12/28 11:41:00;;;;;;;5.32;2.88;;;9.60;68.60;;;;;;4982781;28;20595;-75
2020/12/28 11:43:25;;;;;;;7.13;2.90;;;9.60;68.30;;;;;;4977185;28;20035;-75
2020/12/28 11:45:51;;;;;;;8.27;3.35;;;9.60;68.00;;;;;;4981048;28;20058;-75
2020/12/28 11:48:17;;;;;;;6.53;3.92;;;9.70;67.50;;;;;;4976994;28;20126;-75
2020/12/28 11:50:42;;;;;;;6.55;3.42;;;9.60;66.60;;;;;;4980073;28;20038;-73
2020/12/28 11:53:08;;;;;;;6.25;2.90;;;9.60;66.70;;;;;;4976391;28;20066;-73
2020/12/28 11:56:02;;;;;;;5.70;2.80;;;9.50;67.20;;;;;;4980911;28;20035;-73
2020/12/28 11:58:19;;;;;;;7.15;3.40;;;9.50;67.40;;;;;;4974453;28;20065;-78
2020/12/28 12:00:45;;;;;;;9.48;5.47;;;9.60;67.20;;;;;;4973585;28;20137;-77
2020/12/28 12:03:10;;;;;;;11.40;4.38;;;9.60;67.00;;;;;;4963474;28;20034;-77
2020/12/28 12:05:36;;;;;;;8.18;3.97;;;9.60;67.00;;;;;;4980472;28;20580;-77
2020/12/28 12:08:01;;;;;;;7.57;4.90;;;9.60;66.50;;;;;;4976709;28;20034;-73
2020/12/28 12:10:27;;;;;;;7.38;4.15;;;8.10;66.10;;;;;;4975408;28;20046;-73
2020/12/28 12:12:53;;;;;;;10.55;4.10;;;9.50;66.60;;;;;;4974646;28;20046;-91
2020/12/28 12:15:18;;;;;;;7.68;3.28;;;9.50;66.80;;;;;;4976174;28;20089;-83
2020/12/28 12:17:44;;;;;;;7.88;3.30;;;9.60;67.00;;;;;;4976035;28;20046;-89
2020/12/28 12:20:09;;;;;;;6.63;3.25;;;9.60;66.90;;;;;;4975138;28;20429;-79
2020/12/28 12:22:35;;;;;;;6.70;3.05;;;9.70;67.00;;;;;;4983987;28;20038;-82
2020/12/28 12:25:01;;;;;;;7.57;3.30;;;9.70;66.70;;;;;;4984068;28;20244;-83
2020/12/28 12:27:27;;;;;;;6.85;3.08;;;9.70;66.70;;;;;;4985092;28;20066;-81
2020/12/28 12:29:52;;;;;;;5.47;2.70;;;9.70;66.60;;;;;;4997988;28;20034;-79
2020/12/28 12:32:18;;;;;;;6.55;2.70;;;9.70;66.80;;;;;;4964227;28;20516;-82
2020/12/28 12:34:43;;;;;;;7.15;3.65;;;9.60;65.40;;;;;;4979172;28;20038;-78
2020/12/28 12:37:13;;;;;;;9.60;3.45;;;9.50;66.00;;;;;;4976497;28;20558;-78
2020/12/28 12:39:39;;;;;;;7.80;3.40;;;9.50;66.30;;;;;;4980154;28;20045;-74
2020/12/28 12:42:04;;;;;;;8.32;3.25;;;9.50;66.40;;;;;;4978969;28;20381;-77
2020/12/28 12:44:30;;;;;;;6.93;3.50;;;9.50;66.40;;;;;;4976935;28;20057;-74
2020/12/28 12:46:58;;;;;;;6.07;2.95;;;9.50;66.30;;;;;;4963564;28;20042;-74
2020/12/28 12:49:24;;;;;;;5.88;2.38;;;9.50;66.50;;;;;;4979464;28;20545;-75